sensor_id;sensor_type;location;lat;lon;timestamp;temperature;humidity
13835;DHT22;6988;52.614;13.500;2023-12-07T00:02:25;1.30;99.90
13835;DHT22;6988;52.614;13.500;2023-12-07T00:07:17;1.30;99.90
13835;DHT22;6988;52.614;13.500;2023-12-07T00:12:09;1.30;99.90
13835;DHT22;6988;52.614;13.500;2023-12-07T00:17:01;1.20;99.90
13835;DHT22;6988;52.614;13.500;2023-12-07T00:21:54;1.20;99.90
13835;DHT22;6988;52.614;13.500;2023-12-07T00:26:46;1.20;99.90
13835;DHT22;6988;52.614;13.500;2023-12-07T00:31:38;1.20;99.90
13835;DHT22;6988;52.614;13.500;2023-12-07T00:36:30;1.20;99.90
13835;DHT22;6988;52.614;13.500;2023-12-07T00:41:23;1.20;99.90
13835;DHT22;6988;52.614;13.500;2023-12-07T00:46:15;1.20;99.90
13835;DHT22;6988;52.614;13.500;2023-12-07T00:51:07;1.20;99.90
13835;DHT22;6988;52.614;13.500;2023-12-07T00:55:58;1.20;99.90
13835;DHT22;6988;52.614;13.500;2023-12-07T01:00:52;1.20;99.90
13835;DHT22;6988;52.614;13.500;2023-12-07T01:05:44;1.20;99.90
13835;DHT22;6988;52.614;13.500;2023-12-07T01:10:36;1.20;99.90
13835;DHT22;6988;52.614;13.500;2023-12-07T01:15:28;1.20;99.90
13835;DHT22;6988;52.614;13.500;2023-12-07T01:20:21;1.20;99.90
13835;DHT22;6988;52.614;13.500;2023-12-07T01:25:13;1.20;99.90
13835;DHT22;6988;52.614;13.500;2023-12-07T01:30:10;1.00;99.90
13835;DHT22;6988;52.614;13.500;2023-12-07T01:35:02;1.20;99.90
13835;DHT22;6988;52.614;13.500;2023-12-07T01:39:56;1.20;99.90
13835;DHT22;6988;52.614;13.500;2023-12-07T01:44:48;1.20;99.90
13835;DHT22;6988;52.614;13.500;2023-12-07T01:49:40;1.20;99.90
13835;DHT22;6988;52.614;13.500;2023-12-07T01:54:33;1.20;99.90
13835;DHT22;6988;52.614;13.500;2023-12-07T01:59:27;1.20;99.90
13835;DHT22;6988;52.614;13.500;2023-12-07T02:04:19;1.30;99.90
13835;DHT22;6988;52.614;13.500;2023-12-07T02:09:12;1.30;99.90
13835;DHT22;6988;52.614;13.500;2023-12-07T02:14:04;1.30;99.90
13835;DHT22;6988;52.614;13.500;2023-12-07T02:19:04;1.20;99.90
13835;DHT22;6988;52.614;13.500;2023-12-07T02:24:06;1.20;99.90
13835;DHT22;6988;52.614;13.500;2023-12-07T02:28:59;1.20;99.90
13835;DHT22;6988;52.614;13.500;2023-12-07T02:33:51;1.20;99.90
13835;DHT22;6988;52.614;13.500;2023-12-07T02:38:44;1.20;99.90
13835;DHT22;6988;52.614;13.500;2023-12-07T02:43:38;1.20;99.90
13835;DHT22;6988;52.614;13.500;2023-12-07T02:48:32;1.20;99.90
13835;DHT22;6988;52.614;13.500;2023-12-07T02:53:24;1.20;99.90
13835;DHT22;6988;52.614;13.500;2023-12-07T02:58:16;1.20;99.90
13835;DHT22;6988;52.614;13.500;2023-12-07T03:03:09;1.30;99.90
13835;DHT22;6988;52.614;13.500;2023-12-07T03:08:05;1.20;99.90
13835;DHT22;6988;52.614;13.500;2023-12-07T03:12:57;1.30;99.90
13835;DHT22;6988;52.614;13.500;2023-12-07T03:17:49;1.20;99.90
13835;DHT22;6988;52.614;13.500;2023-12-07T03:22:41;1.30;99.90
13835;DHT22;6988;52.614;13.500;2023-12-07T03:27:35;1.20;99.90
13835;DHT22;6988;52.614;13.500;2023-12-07T03:32:26;1.60;99.90
13835;DHT22;6988;52.614;13.500;2023-12-07T03:37:18;1.20;99.90
13835;DHT22;6988;52.614;13.500;2023-12-07T03:42:10;1.30;99.90
13835;DHT22;6988;52.614;13.500;2023-12-07T03:47:03;1.30;99.90
13835;DHT22;6988;52.614;13.500;2023-12-07T03:51:55;1.20;99.90
13835;DHT22;6988;52.614;13.500;2023-12-07T03:56:47;1.30;99.90
13835;DHT22;6988;52.614;13.500;2023-12-07T04:01:39;1.20;99.90
13835;DHT22;6988;52.614;13.500;2023-12-07T04:06:32;1.30;99.90
13835;DHT22;6988;52.614;13.500;2023-12-07T04:11:24;1.20;99.90
13835;DHT22;6988;52.614;13.500;2023-12-07T04:16:15;1.30;99.90
13835;DHT22;6988;52.614;13.500;2023-12-07T04:21:07;1.20;99.90
13835;DHT22;6988;52.614;13.500;2023-12-07T04:26:00;1.20;99.90
13835;DHT22;6988;52.614;13.500;2023-12-07T04:30:52;1.30;99.90
13835;DHT22;6988;52.614;13.500;2023-12-07T04:35:44;1.20;99.90
13835;DHT22;6988;52.614;13.500;2023-12-07T04:40:36;1.10;99.90
13835;DHT22;6988;52.614;13.500;2023-12-07T04:45:29;1.40;99.90
13835;DHT22;6988;52.614;13.500;2023-12-07T04:50:21;1.20;99.90
13835;DHT22;6988;52.614;13.500;2023-12-07T04:55:13;1.20;99.90
13835;DHT22;6988;52.614;13.500;2023-12-07T05:00:06;1.20;99.90
13835;DHT22;6988;52.614;13.500;2023-12-07T05:05:01;1.20;99.90
13835;DHT22;6988;52.614;13.500;2023-12-07T05:09:53;1.30;99.90
13835;DHT22;6988;52.614;13.500;2023-12-07T05:14:45;1.40;99.90
13835;DHT22;6988;52.614;13.500;2023-12-07T05:19:37;1.20;99.90
13835;DHT22;6988;52.614;13.500;2023-12-07T05:24:30;1.20;99.90
13835;DHT22;6988;52.614;13.500;2023-12-07T05:29:24;1.20;99.90
13835;DHT22;6988;52.614;13.500;2023-12-07T05:34:16;1.40;99.90
13835;DHT22;6988;52.614;13.500;2023-12-07T05:39:09;1.20;99.90
13835;DHT22;6988;52.614;13.500;2023-12-07T05:44:03;1.20;99.90
13835;DHT22;6988;52.614;13.500;2023-12-07T05:48:55;1.30;99.90
13835;DHT22;6988;52.614;13.500;2023-12-07T05:53:47;1.20;99.90
13835;DHT22;6988;52.614;13.500;2023-12-07T05:58:38;1.30;99.90
13835;DHT22;6988;52.614;13.500;2023-12-07T06:03:31;1.30;99.90
13835;DHT22;6988;52.614;13.500;2023-12-07T06:08:23;1.20;99.90
13835;DHT22;6988;52.614;13.500;2023-12-07T06:13:15;1.20;99.90
13835;DHT22;6988;52.614;13.500;2023-12-07T06:18:07;1.40;99.90
13835;DHT22;6988;52.614;13.500;2023-12-07T06:23:00;1.30;99.90
13835;DHT22;6988;52.614;13.500;2023-12-07T06:27:52;1.40;99.90
13835;DHT22;6988;52.614;13.500;2023-12-07T06:32:44;1.50;99.90
13835;DHT22;6988;52.614;13.500;2023-12-07T06:37:35;1.30;99.90
13835;DHT22;6988;52.614;13.500;2023-12-07T06:42:28;1.50;99.90
13835;DHT22;6988;52.614;13.500;2023-12-07T06:47:20;1.40;99.90
13835;DHT22;6988;52.614;13.500;2023-12-07T06:52:12;1.40;99.90
13835;DHT22;6988;52.614;13.500;2023-12-07T06:57:04;1.30;99.90
13835;DHT22;6988;52.614;13.500;2023-12-07T07:01:58;1.50;99.90
13835;DHT22;6988;52.614;13.500;2023-12-07T07:06:50;1.40;99.90
13835;DHT22;6988;52.614;13.500;2023-12-07T07:11:43;1.40;99.90
13835;DHT22;6988;52.614;13.500;2023-12-07T07:16:38;1.40;99.90
13835;DHT22;6988;52.614;13.500;2023-12-07T07:21:32;1.40;99.90
13835;DHT22;6988;52.614;13.500;2023-12-07T07:26:24;1.40;99.90
13835;DHT22;6988;52.614;13.500;2023-12-07T07:31:15;1.40;99.90
13835;DHT22;6988;52.614;13.500;2023-12-07T07:36:08;1.40;99.90
13835;DHT22;6988;52.614;13.500;2023-12-07T07:41:03;1.40;99.90
13835;DHT22;6988;52.614;13.500;2023-12-07T07:45:55;1.50;99.90
13835;DHT22;6988;52.614;13.500;2023-12-07T07:50:47;1.50;99.90
13835;DHT22;6988;52.614;13.500;2023-12-07T07:55:39;1.50;99.90
13835;DHT22;6988;52.614;13.500;2023-12-07T08:00:32;1.60;99.90
13835;DHT22;6988;52.614;13.500;2023-12-07T08:05:24;1.60;99.90
13835;DHT22;6988;52.614;13.500;2023-12-07T08:10:16;1.60;99.90
13835;DHT22;6988;52.614;13.500;2023-12-07T08:15:09;1.70;99.90
13835;DHT22;6988;52.614;13.500;2023-12-07T08:20:05;1.70;99.90
13835;DHT22;6988;52.614;13.500;2023-12-07T08:24:57;1.70;99.90
13835;DHT22;6988;52.614;13.500;2023-12-07T08:29:50;1.70;99.90
13835;DHT22;6988;52.614;13.500;2023-12-07T08:34:42;1.70;99.90
13835;DHT22;6988;52.614;13.500;2023-12-07T08:39:36;1.80;99.90
13835;DHT22;6988;52.614;13.500;2023-12-07T08:44:28;1.80;99.90
13835;DHT22;6988;52.614;13.500;2023-12-07T08:49:20;1.70;99.90
13835;DHT22;6988;52.614;13.500;2023-12-07T08:54:11;1.70;99.90
13835;DHT22;6988;52.614;13.500;2023-12-07T08:59:05;1.90;99.90
13835;DHT22;6988;52.614;13.500;2023-12-07T09:03:56;2.00;99.90
13835;DHT22;6988;52.614;13.500;2023-12-07T09:08:48;2.00;99.90
13835;DHT22;6988;52.614;13.500;2023-12-07T09:13:40;2.00;99.90
13835;DHT22;6988;52.614;13.500;2023-12-07T09:18:33;2.00;99.90
13835;DHT22;6988;52.614;13.500;2023-12-07T09:23:25;2.10;99.90
13835;DHT22;6988;52.614;13.500;2023-12-07T09:28:17;2.10;99.90
13835;DHT22;6988;52.614;13.500;2023-12-07T09:33:09;2.10;99.90
13835;DHT22;6988;52.614;13.500;2023-12-07T09:38:02;2.10;99.90
13835;DHT22;6988;52.614;13.500;2023-12-07T09:42:53;2.30;99.90
13835;DHT22;6988;52.614;13.500;2023-12-07T09:47:48;2.20;99.90
13835;DHT22;6988;52.614;13.500;2023-12-07T09:52:41;2.20;99.90
13835;DHT22;6988;52.614;13.500;2023-12-07T09:57:37;2.10;99.90
13835;DHT22;6988;52.614;13.500;2023-12-07T10:02:29;2.20;99.90
13835;DHT22;6988;52.614;13.500;2023-12-07T10:07:32;2.30;99.90
13835;DHT22;6988;52.614;13.500;2023-12-07T10:12:25;2.20;99.90
13835;DHT22;6988;52.614;13.500;2023-12-07T10:17:18;2.30;99.90
13835;DHT22;6988;52.614;13.500;2023-12-07T10:22:13;2.20;99.90
13835;DHT22;6988;52.614;13.500;2023-12-07T10:27:06;2.20;99.90
13835;DHT22;6988;52.614;13.500;2023-12-07T10:32:00;2.20;99.90
13835;DHT22;6988;52.614;13.500;2023-12-07T10:36:54;2.30;99.90
13835;DHT22;6988;52.614;13.500;2023-12-07T10:41:49;2.20;99.90
13835;DHT22;6988;52.614;13.500;2023-12-07T10:46:48;2.20;99.90
13835;DHT22;6988;52.614;13.500;2023-12-07T10:51:45;2.20;99.90
13835;DHT22;6988;52.614;13.500;2023-12-07T10:56:44;2.20;99.90
13835;DHT22;6988;52.614;13.500;2023-12-07T11:01:37;2.20;99.90
13835;DHT22;6988;52.614;13.500;2023-12-07T11:06:29;2.20;99.90
13835;DHT22;6988;52.614;13.500;2023-12-07T11:11:26;2.20;99.90
13835;DHT22;6988;52.614;13.500;2023-12-07T11:16:31;2.30;99.90
13835;DHT22;6988;52.614;13.500;2023-12-07T11:21:24;2.30;99.90
13835;DHT22;6988;52.614;13.500;2023-12-07T11:26:19;2.40;99.90
13835;DHT22;6988;52.614;13.500;2023-12-07T11:31:11;2.40;99.90
13835;DHT22;6988;52.614;13.500;2023-12-07T11:36:06;2.60;99.90
13835;DHT22;6988;52.614;13.500;2023-12-07T11:40:59;2.70;99.90
13835;DHT22;6988;52.614;13.500;2023-12-07T11:45:53;2.80;99.90
13835;DHT22;6988;52.614;13.500;2023-12-07T11:51:00;2.60;99.90
13835;DHT22;6988;52.614;13.500;2023-12-07T11:55:55;2.50;99.90
13835;DHT22;6988;52.614;13.500;2023-12-07T12:00:50;2.50;99.90
13835;DHT22;6988;52.614;13.500;2023-12-07T12:05:43;2.40;99.90
13835;DHT22;6988;52.614;13.500;2023-12-07T12:10:35;2.40;99.90
13835;DHT22;6988;52.614;13.500;2023-12-07T12:15:29;2.30;99.90
13835;DHT22;6988;52.614;13.500;2023-12-07T12:20:20;2.30;99.90
13835;DHT22;6988;52.614;13.500;2023-12-07T12:25:12;2.30;99.90
13835;DHT22;6988;52.614;13.500;2023-12-07T12:30:06;2.30;99.90
13835;DHT22;6988;52.614;13.500;2023-12-07T12:35:00;2.20;99.90
13835;DHT22;6988;52.614;13.500;2023-12-07T12:39:52;2.20;99.90
13835;DHT22;6988;52.614;13.500;2023-12-07T12:44:44;2.20;99.90
13835;DHT22;6988;52.614;13.500;2023-12-07T12:49:36;2.10;99.90
13835;DHT22;6988;52.614;13.500;2023-12-07T12:54:32;2.10;99.90
13835;DHT22;6988;52.614;13.500;2023-12-07T12:59:24;2.10;99.90
13835;DHT22;6988;52.614;13.500;2023-12-07T13:04:16;2.20;99.90
13835;DHT22;6988;52.614;13.500;2023-12-07T13:09:07;2.10;99.90
13835;DHT22;6988;52.614;13.500;2023-12-07T13:14:01;2.00;99.90
13835;DHT22;6988;52.614;13.500;2023-12-07T13:18:57;2.20;99.90
13835;DHT22;6988;52.614;13.500;2023-12-07T13:23:48;2.10;99.90
13835;DHT22;6988;52.614;13.500;2023-12-07T13:28:40;2.10;99.90
13835;DHT22;6988;52.614;13.500;2023-12-07T13:33:33;2.00;99.90
13835;DHT22;6988;52.614;13.500;2023-12-07T13:38:25;2.10;99.90
13835;DHT22;6988;52.614;13.500;2023-12-07T13:43:20;1.90;99.90
13835;DHT22;6988;52.614;13.500;2023-12-07T13:48:14;2.00;99.90
13835;DHT22;6988;52.614;13.500;2023-12-07T13:53:08;2.00;99.90
13835;DHT22;6988;52.614;13.500;2023-12-07T13:58:00;2.00;99.90
13835;DHT22;6988;52.614;13.500;2023-12-07T14:02:53;2.00;99.90
13835;DHT22;6988;52.614;13.500;2023-12-07T14:07:45;2.00;99.90
13835;DHT22;6988;52.614;13.500;2023-12-07T14:12:38;1.90;99.90
13835;DHT22;6988;52.614;13.500;2023-12-07T14:17:30;2.00;99.90
13835;DHT22;6988;52.614;13.500;2023-12-07T14:22:27;2.00;99.90
13835;DHT22;6988;52.614;13.500;2023-12-07T14:27:19;2.00;99.90
13835;DHT22;6988;52.614;13.500;2023-12-07T14:32:13;2.00;99.90
13835;DHT22;6988;52.614;13.500;2023-12-07T14:37:04;1.90;99.90
13835;DHT22;6988;52.614;13.500;2023-12-07T14:41:58;1.90;99.90
13835;DHT22;6988;52.614;13.500;2023-12-07T14:46:51;2.00;99.90
13835;DHT22;6988;52.614;13.500;2023-12-07T14:51:44;1.80;99.90
13835;DHT22;6988;52.614;13.500;2023-12-07T14:56:38;1.80;99.90
13835;DHT22;6988;52.614;13.500;2023-12-07T15:01:31;1.70;99.90
13835;DHT22;6988;52.614;13.500;2023-12-07T15:06:23;1.70;99.90
13835;DHT22;6988;52.614;13.500;2023-12-07T15:11:17;1.70;99.90
13835;DHT22;6988;52.614;13.500;2023-12-07T15:16:10;1.80;99.90
13835;DHT22;6988;52.614;13.500;2023-12-07T15:21:02;1.80;99.90
13835;DHT22;6988;52.614;13.500;2023-12-07T15:25:55;1.80;99.90
13835;DHT22;6988;52.614;13.500;2023-12-07T15:30:49;1.70;99.90
13835;DHT22;6988;52.614;13.500;2023-12-07T15:35:40;1.70;99.90
13835;DHT22;6988;52.614;13.500;2023-12-07T15:40:32;1.60;99.90
13835;DHT22;6988;52.614;13.500;2023-12-07T15:45:24;1.60;99.90
13835;DHT22;6988;52.614;13.500;2023-12-07T15:50:17;1.60;99.90
13835;DHT22;6988;52.614;13.500;2023-12-07T15:55:09;1.60;99.90
13835;DHT22;6988;52.614;13.500;2023-12-07T16:00:01;1.60;99.90
13835;DHT22;6988;52.614;13.500;2023-12-07T16:04:55;1.70;99.90
13835;DHT22;6988;52.614;13.500;2023-12-07T16:09:49;1.70;99.90
13835;DHT22;6988;52.614;13.500;2023-12-07T16:14:41;1.70;99.90
13835;DHT22;6988;52.614;13.500;2023-12-07T16:19:33;1.70;99.90
13835;DHT22;6988;52.614;13.500;2023-12-07T16:24:25;1.70;99.90
13835;DHT22;6988;52.614;13.500;2023-12-07T16:29:18;1.70;99.90
13835;DHT22;6988;52.614;13.500;2023-12-07T16:34:11;1.70;99.90
13835;DHT22;6988;52.614;13.500;2023-12-07T16:39:03;1.70;99.90
13835;DHT22;6988;52.614;13.500;2023-12-07T16:43:57;1.70;99.90
13835;DHT22;6988;52.614;13.500;2023-12-07T16:48:50;1.70;99.90
13835;DHT22;6988;52.614;13.500;2023-12-07T16:53:42;1.70;99.90
13835;DHT22;6988;52.614;13.500;2023-12-07T16:58:34;1.70;99.90
13835;DHT22;6988;52.614;13.500;2023-12-07T17:03:26;1.70;99.90
13835;DHT22;6988;52.614;13.500;2023-12-07T17:08:20;1.70;99.90
13835;DHT22;6988;52.614;13.500;2023-12-07T17:13:13;1.70;99.90
13835;DHT22;6988;52.614;13.500;2023-12-07T17:18:05;1.70;99.90
13835;DHT22;6988;52.614;13.500;2023-12-07T17:22:57;1.70;99.90
13835;DHT22;6988;52.614;13.500;2023-12-07T17:27:52;1.70;99.90
13835;DHT22;6988;52.614;13.500;2023-12-07T17:32:44;1.70;99.90
13835;DHT22;6988;52.614;13.500;2023-12-07T17:37:36;1.70;99.90
13835;DHT22;6988;52.614;13.500;2023-12-07T17:42:27;1.60;99.90
13835;DHT22;6988;52.614;13.500;2023-12-07T17:47:21;1.80;99.90
13835;DHT22;6988;52.614;13.500;2023-12-07T17:52:16;1.70;99.90
13835;DHT22;6988;52.614;13.500;2023-12-07T17:57:08;1.70;99.90
13835;DHT22;6988;52.614;13.500;2023-12-07T18:02:00;1.70;99.90
13835;DHT22;6988;52.614;13.500;2023-12-07T18:06:54;1.70;99.90
13835;DHT22;6988;52.614;13.500;2023-12-07T18:11:45;1.70;99.90
13835;DHT22;6988;52.614;13.500;2023-12-07T18:16:38;1.80;99.90
13835;DHT22;6988;52.614;13.500;2023-12-07T18:21:29;1.70;99.90
13835;DHT22;6988;52.614;13.500;2023-12-07T18:26:23;1.70;99.90
13835;DHT22;6988;52.614;13.500;2023-12-07T18:31:14;1.70;99.90
13835;DHT22;6988;52.614;13.500;2023-12-07T18:36:07;1.70;99.90
13835;DHT22;6988;52.614;13.500;2023-12-07T18:41:00;1.70;99.90
13835;DHT22;6988;52.614;13.500;2023-12-07T18:45:53;1.80;99.90
13835;DHT22;6988;52.614;13.500;2023-12-07T18:50:45;1.70;99.90
13835;DHT22;6988;52.614;13.500;2023-12-07T18:55:40;1.60;99.90
13835;DHT22;6988;52.614;13.500;2023-12-07T19:00:32;1.60;99.90
13835;DHT22;6988;52.614;13.500;2023-12-07T19:05:26;1.70;99.90
13835;DHT22;6988;52.614;13.500;2023-12-07T19:10:18;1.70;99.90
13835;DHT22;6988;52.614;13.500;2023-12-07T19:15:10;1.60;99.90
13835;DHT22;6988;52.614;13.500;2023-12-07T19:20:04;1.60;99.90
13835;DHT22;6988;52.614;13.500;2023-12-07T19:24:58;1.60;99.90
13835;DHT22;6988;52.614;13.500;2023-12-07T19:29:51;1.60;99.90
13835;DHT22;6988;52.614;13.500;2023-12-07T19:34:44;1.60;99.90
13835;DHT22;6988;52.614;13.500;2023-12-07T19:39:36;1.60;99.90
13835;DHT22;6988;52.614;13.500;2023-12-07T19:44:29;1.60;99.90
13835;DHT22;6988;52.614;13.500;2023-12-07T19:49:21;1.60;99.90
13835;DHT22;6988;52.614;13.500;2023-12-07T19:54:12;1.60;99.90
13835;DHT22;6988;52.614;13.500;2023-12-07T19:59:06;1.60;99.90
13835;DHT22;6988;52.614;13.500;2023-12-07T20:04:00;1.60;99.90
13835;DHT22;6988;52.614;13.500;2023-12-07T20:08:52;1.60;99.90
13835;DHT22;6988;52.614;13.500;2023-12-07T20:13:44;1.50;99.90
13835;DHT22;6988;52.614;13.500;2023-12-07T20:18:36;1.50;99.90
13835;DHT22;6988;52.614;13.500;2023-12-07T20:23:29;1.50;99.90
13835;DHT22;6988;52.614;13.500;2023-12-07T20:28:21;1.40;99.90
13835;DHT22;6988;52.614;13.500;2023-12-07T20:33:13;1.50;99.90
13835;DHT22;6988;52.614;13.500;2023-12-07T20:38:06;1.40;99.90
13835;DHT22;6988;52.614;13.500;2023-12-07T20:43:00;1.40;99.90
13835;DHT22;6988;52.614;13.500;2023-12-07T20:47:52;1.40;99.90
13835;DHT22;6988;52.614;13.500;2023-12-07T20:52:44;1.40;99.90
13835;DHT22;6988;52.614;13.500;2023-12-07T20:57:36;1.50;99.90
13835;DHT22;6988;52.614;13.500;2023-12-07T21:02:30;1.60;99.90
13835;DHT22;6988;52.614;13.500;2023-12-07T21:07:22;1.40;99.90
13835;DHT22;6988;52.614;13.500;2023-12-07T21:12:14;1.30;99.90
13835;DHT22;6988;52.614;13.500;2023-12-07T21:17:06;1.40;99.90
13835;DHT22;6988;52.614;13.500;2023-12-07T21:21:59;1.40;99.90
13835;DHT22;6988;52.614;13.500;2023-12-07T21:26:51;1.40;99.90
13835;DHT22;6988;52.614;13.500;2023-12-07T21:31:43;1.50;99.90
13835;DHT22;6988;52.614;13.500;2023-12-07T22:08:36;1.40;99.90
13835;DHT22;6988;52.614;13.500;2023-12-07T23:14:40;1.10;99.90
13835;DHT22;6988;52.614;13.500;2023-12-07T23:20:08;1.30;99.90
13835;DHT22;6988;52.614;13.500;2023-12-07T23:36:59;1.20;99.90
13835;DHT22;6988;52.614;13.500;2023-12-07T23:42:04;1.20;99.90
13835;DHT22;6988;52.614;13.500;2023-12-07T23:47:15;1.20;99.90
13835;DHT22;6988;52.614;13.500;2023-12-07T23:52:34;1.20;99.90
13835;DHT22;6988;52.614;13.500;2023-12-07T23:57:36;1.20;99.90
